sensor_id;sensor_type;location;lat;lon;timestamp;temperature;humidity
19555;DHT22;9924;50.828;6.440;2023-07-24T00:01:54;18.20;99.90
19555;DHT22;9924;50.828;6.440;2023-07-24T00:04:20;18.20;99.90
19555;DHT22;9924;50.828;6.440;2023-07-24T00:06:45;18.10;99.90
19555;DHT22;9924;50.828;6.440;2023-07-24T00:09:11;18.10;99.90
19555;DHT22;9924;50.828;6.440;2023-07-24T00:11:37;18.10;99.90
19555;DHT22;9924;50.828;6.440;2023-07-24T00:14:03;18.10;99.90
19555;DHT22;9924;50.828;6.440;2023-07-24T00:16:28;18.10;99.90
19555;DHT22;9924;50.828;6.440;2023-07-24T00:18:56;18.10;99.90
19555;DHT22;9924;50.828;6.440;2023-07-24T00:21:22;18.00;99.90
19555;DHT22;9924;50.828;6.440;2023-07-24T00:23:48;18.00;99.90
19555;DHT22;9924;50.828;6.440;2023-07-24T00:26:13;18.00;99.90
19555;DHT22;9924;50.828;6.440;2023-07-24T00:28:39;17.90;99.90
19555;DHT22;9924;50.828;6.440;2023-07-24T00:31:05;17.90;99.90
19555;DHT22;9924;50.828;6.440;2023-07-24T00:33:31;17.80;99.90
19555;DHT22;9924;50.828;6.440;2023-07-24T00:35:57;17.90;99.90
19555;DHT22;9924;50.828;6.440;2023-07-24T00:38:27;17.90;99.90
19555;DHT22;9924;50.828;6.440;2023-07-24T00:40:52;17.90;99.90
19555;DHT22;9924;50.828;6.440;2023-07-24T00:43:18;17.90;99.90
19555;DHT22;9924;50.828;6.440;2023-07-24T00:45:45;17.80;99.90
19555;DHT22;9924;50.828;6.440;2023-07-24T00:48:12;17.80;99.90
19555;DHT22;9924;50.828;6.440;2023-07-24T00:50:38;17.80;99.90
19555;DHT22;9924;50.828;6.440;2023-07-24T00:53:04;17.90;99.90
19555;DHT22;9924;50.828;6.440;2023-07-24T00:55:31;17.90;99.90
19555;DHT22;9924;50.828;6.440;2023-07-24T00:57:58;17.90;99.90
19555;DHT22;9924;50.828;6.440;2023-07-24T01:00:24;17.90;99.90
19555;DHT22;9924;50.828;6.440;2023-07-24T01:02:50;17.80;99.90
19555;DHT22;9924;50.828;6.440;2023-07-24T01:05:16;17.80;99.90
19555;DHT22;9924;50.828;6.440;2023-07-24T01:07:42;17.80;99.90
19555;DHT22;9924;50.828;6.440;2023-07-24T01:10:08;17.70;99.90
19555;DHT22;9924;50.828;6.440;2023-07-24T01:12:51;17.80;99.90
19555;DHT22;9924;50.828;6.440;2023-07-24T01:15:36;17.80;99.90
19555;DHT22;9924;50.828;6.440;2023-07-24T01:18:08;17.80;99.90
19555;DHT22;9924;50.828;6.440;2023-07-24T01:20:36;17.90;99.90
19555;DHT22;9924;50.828;6.440;2023-07-24T01:26:00;18.00;99.90
19555;DHT22;9924;50.828;6.440;2023-07-24T01:28:28;18.10;99.90
19555;DHT22;9924;50.828;6.440;2023-07-24T01:30:54;18.10;99.90
19555;DHT22;9924;50.828;6.440;2023-07-24T01:33:21;18.10;99.90
19555;DHT22;9924;50.828;6.440;2023-07-24T01:35:55;18.20;99.90
19555;DHT22;9924;50.828;6.440;2023-07-24T01:38:24;18.30;99.90
19555;DHT22;9924;50.828;6.440;2023-07-24T01:40:52;18.50;99.90
19555;DHT22;9924;50.828;6.440;2023-07-24T01:43:18;18.60;99.90
19555;DHT22;9924;50.828;6.440;2023-07-24T01:45:44;18.80;99.90
19555;DHT22;9924;50.828;6.440;2023-07-24T01:48:10;18.90;99.90
19555;DHT22;9924;50.828;6.440;2023-07-24T01:50:36;19.00;99.90
19555;DHT22;9924;50.828;6.440;2023-07-24T01:53:01;19.10;99.90
19555;DHT22;9924;50.828;6.440;2023-07-24T01:55:27;19.20;99.90
19555;DHT22;9924;50.828;6.440;2023-07-24T01:57:53;19.20;99.90
19555;DHT22;9924;50.828;6.440;2023-07-24T02:00:19;19.20;99.90
19555;DHT22;9924;50.828;6.440;2023-07-24T02:02:45;19.30;99.90
19555;DHT22;9924;50.828;6.440;2023-07-24T02:05:11;19.30;99.90
19555;DHT22;9924;50.828;6.440;2023-07-24T02:07:37;19.20;99.90
19555;DHT22;9924;50.828;6.440;2023-07-24T02:10:03;19.20;99.90
19555;DHT22;9924;50.828;6.440;2023-07-24T02:12:29;19.00;99.90
19555;DHT22;9924;50.828;6.440;2023-07-24T02:14:54;18.90;99.90
19555;DHT22;9924;50.828;6.440;2023-07-24T02:17:21;18.70;99.90
19555;DHT22;9924;50.828;6.440;2023-07-24T02:19:46;18.70;99.90
19555;DHT22;9924;50.828;6.440;2023-07-24T02:22:12;18.60;99.90
19555;DHT22;9924;50.828;6.440;2023-07-24T02:24:38;18.50;99.90
19555;DHT22;9924;50.828;6.440;2023-07-24T02:27:05;18.50;99.90
19555;DHT22;9924;50.828;6.440;2023-07-24T02:29:31;18.50;99.90
19555;DHT22;9924;50.828;6.440;2023-07-24T02:31:58;18.40;99.90
19555;DHT22;9924;50.828;6.440;2023-07-24T02:34:24;18.40;99.90
19555;DHT22;9924;50.828;6.440;2023-07-24T02:36:54;18.40;99.90
19555;DHT22;9924;50.828;6.440;2023-07-24T02:39:20;18.40;99.90
19555;DHT22;9924;50.828;6.440;2023-07-24T02:41:49;18.40;99.90
19555;DHT22;9924;50.828;6.440;2023-07-24T02:44:15;18.40;99.90
19555;DHT22;9924;50.828;6.440;2023-07-24T02:46:41;18.40;99.90
19555;DHT22;9924;50.828;6.440;2023-07-24T02:49:07;18.40;99.90
19555;DHT22;9924;50.828;6.440;2023-07-24T02:51:33;18.40;99.90
19555;DHT22;9924;50.828;6.440;2023-07-24T02:53:58;18.40;99.90
19555;DHT22;9924;50.828;6.440;2023-07-24T02:56:24;18.40;99.90
19555;DHT22;9924;50.828;6.440;2023-07-24T02:58:50;18.40;99.90
19555;DHT22;9924;50.828;6.440;2023-07-24T03:01:16;18.40;99.90
19555;DHT22;9924;50.828;6.440;2023-07-24T03:03:41;18.40;99.90
19555;DHT22;9924;50.828;6.440;2023-07-24T03:06:07;18.40;99.90
19555;DHT22;9924;50.828;6.440;2023-07-24T03:08:33;18.40;99.90
19555;DHT22;9924;50.828;6.440;2023-07-24T03:10:59;18.30;99.90
19555;DHT22;9924;50.828;6.440;2023-07-24T03:13:26;18.30;99.90
19555;DHT22;9924;50.828;6.440;2023-07-24T03:15:56;18.20;99.90
19555;DHT22;9924;50.828;6.440;2023-07-24T03:18:22;18.20;99.90
19555;DHT22;9924;50.828;6.440;2023-07-24T03:20:49;18.10;99.90
19555;DHT22;9924;50.828;6.440;2023-07-24T03:23:14;18.00;99.90
19555;DHT22;9924;50.828;6.440;2023-07-24T03:25:40;18.00;99.90
19555;DHT22;9924;50.828;6.440;2023-07-24T03:28:06;18.00;99.90
19555;DHT22;9924;50.828;6.440;2023-07-24T03:30:32;18.00;99.90
19555;DHT22;9924;50.828;6.440;2023-07-24T03:32:57;18.00;99.90
19555;DHT22;9924;50.828;6.440;2023-07-24T03:35:23;18.00;99.90
19555;DHT22;9924;50.828;6.440;2023-07-24T03:37:49;17.90;99.90
19555;DHT22;9924;50.828;6.440;2023-07-24T03:40:15;17.90;99.90
19555;DHT22;9924;50.828;6.440;2023-07-24T03:42:41;17.90;99.90
19555;DHT22;9924;50.828;6.440;2023-07-24T03:45:07;17.90;99.90
19555;DHT22;9924;50.828;6.440;2023-07-24T03:47:34;17.90;99.90
19555;DHT22;9924;50.828;6.440;2023-07-24T03:49:59;17.90;99.90
19555;DHT22;9924;50.828;6.440;2023-07-24T03:52:26;17.90;99.90
19555;DHT22;9924;50.828;6.440;2023-07-24T03:54:52;17.90;99.90
19555;DHT22;9924;50.828;6.440;2023-07-24T03:57:18;17.90;99.90
19555;DHT22;9924;50.828;6.440;2023-07-24T03:59:44;17.90;99.90
19555;DHT22;9924;50.828;6.440;2023-07-24T04:02:10;17.90;99.90
19555;DHT22;9924;50.828;6.440;2023-07-24T04:04:36;17.90;99.90
19555;DHT22;9924;50.828;6.440;2023-07-24T04:07:03;17.90;99.90
19555;DHT22;9924;50.828;6.440;2023-07-24T04:09:29;17.90;99.90
19555;DHT22;9924;50.828;6.440;2023-07-24T04:11:54;18.00;99.90
19555;DHT22;9924;50.828;6.440;2023-07-24T04:14:20;18.00;99.90
19555;DHT22;9924;50.828;6.440;2023-07-24T04:16:46;18.00;99.90
19555;DHT22;9924;50.828;6.440;2023-07-24T04:19:12;18.00;99.90
19555;DHT22;9924;50.828;6.440;2023-07-24T04:21:38;18.10;99.90
19555;DHT22;9924;50.828;6.440;2023-07-24T04:24:04;18.10;99.90
19555;DHT22;9924;50.828;6.440;2023-07-24T04:26:29;18.10;99.90
19555;DHT22;9924;50.828;6.440;2023-07-24T04:28:55;18.10;99.90
19555;DHT22;9924;50.828;6.440;2023-07-24T04:31:21;18.10;99.90
19555;DHT22;9924;50.828;6.440;2023-07-24T04:33:47;18.00;99.90
19555;DHT22;9924;50.828;6.440;2023-07-24T04:36:12;18.00;99.90
19555;DHT22;9924;50.828;6.440;2023-07-24T04:38:38;17.90;99.90
19555;DHT22;9924;50.828;6.440;2023-07-24T04:41:04;17.80;99.90
19555;DHT22;9924;50.828;6.440;2023-07-24T04:43:30;17.80;99.90
19555;DHT22;9924;50.828;6.440;2023-07-24T04:45:55;17.80;99.90
19555;DHT22;9924;50.828;6.440;2023-07-24T04:48:21;17.80;99.90
19555;DHT22;9924;50.828;6.440;2023-07-24T04:50:52;17.80;99.90
19555;DHT22;9924;50.828;6.440;2023-07-24T04:53:18;17.90;99.90
19555;DHT22;9924;50.828;6.440;2023-07-24T04:55:45;18.00;99.90
19555;DHT22;9924;50.828;6.440;2023-07-24T04:58:11;18.10;99.90
19555;DHT22;9924;50.828;6.440;2023-07-24T05:00:37;18.20;99.90
19555;DHT22;9924;50.828;6.440;2023-07-24T05:03:03;18.30;99.90
19555;DHT22;9924;50.828;6.440;2023-07-24T05:05:29;18.30;99.90
19555;DHT22;9924;50.828;6.440;2023-07-24T05:07:54;18.30;99.90
19555;DHT22;9924;50.828;6.440;2023-07-24T05:10:20;18.30;99.90
19555;DHT22;9924;50.828;6.440;2023-07-24T05:12:46;18.40;99.90
19555;DHT22;9924;50.828;6.440;2023-07-24T05:15:12;18.40;99.90
19555;DHT22;9924;50.828;6.440;2023-07-24T05:17:37;18.50;99.90
19555;DHT22;9924;50.828;6.440;2023-07-24T05:20:04;18.50;99.90
19555;DHT22;9924;50.828;6.440;2023-07-24T05:22:29;18.50;99.90
19555;DHT22;9924;50.828;6.440;2023-07-24T05:24:55;18.60;99.90
19555;DHT22;9924;50.828;6.440;2023-07-24T05:27:21;18.60;99.90
19555;DHT22;9924;50.828;6.440;2023-07-24T05:29:47;18.70;99.90
19555;DHT22;9924;50.828;6.440;2023-07-24T05:32:12;18.90;99.90
19555;DHT22;9924;50.828;6.440;2023-07-24T05:34:38;19.00;99.90
19555;DHT22;9924;50.828;6.440;2023-07-24T05:37:05;19.00;99.90
19555;DHT22;9924;50.828;6.440;2023-07-24T05:39:30;19.00;99.90
19555;DHT22;9924;50.828;6.440;2023-07-24T05:41:56;19.10;99.90
19555;DHT22;9924;50.828;6.440;2023-07-24T05:44:22;19.00;99.90
19555;DHT22;9924;50.828;6.440;2023-07-24T05:46:48;19.10;99.90
19555;DHT22;9924;50.828;6.440;2023-07-24T05:49:14;19.20;99.90
19555;DHT22;9924;50.828;6.440;2023-07-24T05:51:39;19.20;99.90
19555;DHT22;9924;50.828;6.440;2023-07-24T05:54:05;19.30;99.90
19555;DHT22;9924;50.828;6.440;2023-07-24T05:56:31;19.30;99.90
19555;DHT22;9924;50.828;6.440;2023-07-24T05:58:57;19.20;99.90
19555;DHT22;9924;50.828;6.440;2023-07-24T06:01:22;19.20;99.90
19555;DHT22;9924;50.828;6.440;2023-07-24T06:03:48;19.30;99.90
19555;DHT22;9924;50.828;6.440;2023-07-24T06:06:14;19.30;99.90
19555;DHT22;9924;50.828;6.440;2023-07-24T06:08:39;19.30;99.90
19555;DHT22;9924;50.828;6.440;2023-07-24T06:11:05;19.30;99.90
19555;DHT22;9924;50.828;6.440;2023-07-24T06:13:31;19.30;99.90
19555;DHT22;9924;50.828;6.440;2023-07-24T06:15:56;19.30;99.90
19555;DHT22;9924;50.828;6.440;2023-07-24T06:18:22;19.30;99.90
19555;DHT22;9924;50.828;6.440;2023-07-24T06:20:52;19.30;99.90
19555;DHT22;9924;50.828;6.440;2023-07-24T06:23:18;19.20;99.90
19555;DHT22;9924;50.828;6.440;2023-07-24T06:25:44;19.20;99.90
19555;DHT22;9924;50.828;6.440;2023-07-24T06:28:10;19.10;99.90
19555;DHT22;9924;50.828;6.440;2023-07-24T06:30:35;19.20;99.90
19555;DHT22;9924;50.828;6.440;2023-07-24T06:33:01;19.20;99.90
19555;DHT22;9924;50.828;6.440;2023-07-24T06:35:27;19.20;99.90
19555;DHT22;9924;50.828;6.440;2023-07-24T06:37:53;19.20;99.90
19555;DHT22;9924;50.828;6.440;2023-07-24T06:40:18;19.30;99.90
19555;DHT22;9924;50.828;6.440;2023-07-24T06:42:45;19.40;99.90
19555;DHT22;9924;50.828;6.440;2023-07-24T06:45:11;19.50;99.90
19555;DHT22;9924;50.828;6.440;2023-07-24T06:47:37;19.50;99.90
19555;DHT22;9924;50.828;6.440;2023-07-24T06:50:03;19.50;99.90
19555;DHT22;9924;50.828;6.440;2023-07-24T06:52:31;19.50;99.90
19555;DHT22;9924;50.828;6.440;2023-07-24T06:54:57;19.50;99.90
19555;DHT22;9924;50.828;6.440;2023-07-24T06:57:24;19.50;99.90
19555;DHT22;9924;50.828;6.440;2023-07-24T06:59:49;19.50;99.90
19555;DHT22;9924;50.828;6.440;2023-07-24T07:02:15;19.50;99.90
19555;DHT22;9924;50.828;6.440;2023-07-24T07:04:41;19.50;99.90
19555;DHT22;9924;50.828;6.440;2023-07-24T07:07:07;19.50;99.90
19555;DHT22;9924;50.828;6.440;2023-07-24T07:09:33;19.50;99.90
19555;DHT22;9924;50.828;6.440;2023-07-24T07:11:58;19.50;99.90
19555;DHT22;9924;50.828;6.440;2023-07-24T07:14:24;19.50;99.90
19555;DHT22;9924;50.828;6.440;2023-07-24T07:16:50;19.60;99.90
19555;DHT22;9924;50.828;6.440;2023-07-24T07:19:16;19.60;99.90
19555;DHT22;9924;50.828;6.440;2023-07-24T07:21:41;19.60;99.90
19555;DHT22;9924;50.828;6.440;2023-07-24T07:24:07;19.80;99.90
19555;DHT22;9924;50.828;6.440;2023-07-24T07:26:33;19.90;99.90
19555;DHT22;9924;50.828;6.440;2023-07-24T07:28:59;20.00;99.90
19555;DHT22;9924;50.828;6.440;2023-07-24T07:31:25;20.20;99.90
19555;DHT22;9924;50.828;6.440;2023-07-24T07:33:51;20.30;99.90
19555;DHT22;9924;50.828;6.440;2023-07-24T07:36:17;20.40;99.90
19555;DHT22;9924;50.828;6.440;2023-07-24T07:38:43;20.40;99.90
19555;DHT22;9924;50.828;6.440;2023-07-24T07:41:09;20.40;99.90
19555;DHT22;9924;50.828;6.440;2023-07-24T07:43:35;20.30;99.90
19555;DHT22;9924;50.828;6.440;2023-07-24T07:46:02;20.40;99.90
19555;DHT22;9924;50.828;6.440;2023-07-24T07:48:28;20.40;99.90
19555;DHT22;9924;50.828;6.440;2023-07-24T07:50:54;20.50;99.90
19555;DHT22;9924;50.828;6.440;2023-07-24T07:53:20;20.50;99.90
19555;DHT22;9924;50.828;6.440;2023-07-24T07:55:45;20.50;99.90
19555;DHT22;9924;50.828;6.440;2023-07-24T07:58:11;20.50;99.90
19555;DHT22;9924;50.828;6.440;2023-07-24T08:00:37;20.60;99.90
19555;DHT22;9924;50.828;6.440;2023-07-24T08:03:05;20.60;99.90
19555;DHT22;9924;50.828;6.440;2023-07-24T08:05:31;20.70;99.90
19555;DHT22;9924;50.828;6.440;2023-07-24T08:07:57;20.70;99.90
19555;DHT22;9924;50.828;6.440;2023-07-24T08:10:23;20.70;99.90
19555;DHT22;9924;50.828;6.440;2023-07-24T08:12:49;20.80;99.90
19555;DHT22;9924;50.828;6.440;2023-07-24T08:15:15;20.80;99.90
19555;DHT22;9924;50.828;6.440;2023-07-24T08:17:41;20.90;99.90
19555;DHT22;9924;50.828;6.440;2023-07-24T08:20:07;21.00;99.90
19555;DHT22;9924;50.828;6.440;2023-07-24T08:22:33;21.10;99.90
19555;DHT22;9924;50.828;6.440;2023-07-24T08:24:59;21.20;99.90
19555;DHT22;9924;50.828;6.440;2023-07-24T08:27:24;21.30;99.90
19555;DHT22;9924;50.828;6.440;2023-07-24T08:29:53;21.30;99.90
19555;DHT22;9924;50.828;6.440;2023-07-24T08:32:19;21.40;99.90
19555;DHT22;9924;50.828;6.440;2023-07-24T08:34:45;21.30;99.90
19555;DHT22;9924;50.828;6.440;2023-07-24T08:37:14;21.20;99.90
19555;DHT22;9924;50.828;6.440;2023-07-24T08:39:39;21.10;99.90
19555;DHT22;9924;50.828;6.440;2023-07-24T08:42:13;21.10;99.90
19555;DHT22;9924;50.828;6.440;2023-07-24T08:44:40;21.20;99.90
19555;DHT22;9924;50.828;6.440;2023-07-24T08:47:10;21.10;99.90
19555;DHT22;9924;50.828;6.440;2023-07-24T08:49:38;21.20;99.90
19555;DHT22;9924;50.828;6.440;2023-07-24T08:52:06;21.30;99.90
19555;DHT22;9924;50.828;6.440;2023-07-24T08:54:32;21.50;99.90
19555;DHT22;9924;50.828;6.440;2023-07-24T08:57:02;21.80;99.90
19555;DHT22;9924;50.828;6.440;2023-07-24T08:59:27;21.90;99.90
19555;DHT22;9924;50.828;6.440;2023-07-24T09:01:55;22.00;99.90
19555;DHT22;9924;50.828;6.440;2023-07-24T09:04:21;21.90;99.90
19555;DHT22;9924;50.828;6.440;2023-07-24T09:06:46;21.70;99.90
19555;DHT22;9924;50.828;6.440;2023-07-24T09:09:14;21.60;99.90
19555;DHT22;9924;50.828;6.440;2023-07-24T09:11:50;21.60;99.90
19555;DHT22;9924;50.828;6.440;2023-07-24T09:14:27;21.70;99.90
19555;DHT22;9924;50.828;6.440;2023-07-24T09:19:29;21.60;99.90
19555;DHT22;9924;50.828;6.440;2023-07-24T09:21:55;21.70;99.90
19555;DHT22;9924;50.828;6.440;2023-07-24T09:24:21;21.80;99.90
19555;DHT22;9924;50.828;6.440;2023-07-24T09:26:48;21.80;99.90
19555;DHT22;9924;50.828;6.440;2023-07-24T09:29:14;21.80;99.90
19555;DHT22;9924;50.828;6.440;2023-07-24T09:31:40;21.90;99.90
19555;DHT22;9924;50.828;6.440;2023-07-24T09:34:14;21.80;99.90
19555;DHT22;9924;50.828;6.440;2023-07-24T09:36:41;21.80;99.90
19555;DHT22;9924;50.828;6.440;2023-07-24T09:39:07;21.90;99.90
19555;DHT22;9924;50.828;6.440;2023-07-24T09:41:36;21.90;99.90
19555;DHT22;9924;50.828;6.440;2023-07-24T09:44:02;22.00;99.90
19555;DHT22;9924;50.828;6.440;2023-07-24T09:46:27;21.90;99.90
19555;DHT22;9924;50.828;6.440;2023-07-24T09:48:57;22.00;99.90
19555;DHT22;9924;50.828;6.440;2023-07-24T09:51:23;22.10;99.90
19555;DHT22;9924;50.828;6.440;2023-07-24T09:54:06;22.20;99.90
19555;DHT22;9924;50.828;6.440;2023-07-24T09:56:33;22.30;99.90
19555;DHT22;9924;50.828;6.440;2023-07-24T09:59:00;22.80;99.90
19555;DHT22;9924;50.828;6.440;2023-07-24T10:01:29;23.30;99.90
19555;DHT22;9924;50.828;6.440;2023-07-24T10:03:55;23.70;99.90
19555;DHT22;9924;50.828;6.440;2023-07-24T10:06:21;23.70;99.90
19555;DHT22;9924;50.828;6.440;2023-07-24T10:08:48;23.30;99.90
19555;DHT22;9924;50.828;6.440;2023-07-24T10:11:14;23.00;99.90
19555;DHT22;9924;50.828;6.440;2023-07-24T10:13:41;22.90;99.90
19555;DHT22;9924;50.828;6.440;2023-07-24T10:16:07;23.00;99.90
19555;DHT22;9924;50.828;6.440;2023-07-24T10:18:46;22.90;99.90
19555;DHT22;9924;50.828;6.440;2023-07-24T10:21:12;22.80;99.90
19555;DHT22;9924;50.828;6.440;2023-07-24T10:23:45;22.70;99.90
19555;DHT22;9924;50.828;6.440;2023-07-24T10:26:15;22.60;99.90
19555;DHT22;9924;50.828;6.440;2023-07-24T10:28:41;22.70;99.90
19555;DHT22;9924;50.828;6.440;2023-07-24T10:31:29;22.60;99.90
19555;DHT22;9924;50.828;6.440;2023-07-24T10:33:56;22.70;99.90
19555;DHT22;9924;50.828;6.440;2023-07-24T10:36:36;22.80;99.90
19555;DHT22;9924;50.828;6.440;2023-07-24T10:39:02;23.00;99.90
19555;DHT22;9924;50.828;6.440;2023-07-24T10:41:35;23.10;99.90
19555;DHT22;9924;50.828;6.440;2023-07-24T10:44:01;23.20;99.90
19555;DHT22;9924;50.828;6.440;2023-07-24T10:46:37;23.20;99.90
19555;DHT22;9924;50.828;6.440;2023-07-24T10:49:03;23.30;99.90
19555;DHT22;9924;50.828;6.440;2023-07-24T10:51:30;23.20;99.90
19555;DHT22;9924;50.828;6.440;2023-07-24T10:54:02;23.20;99.90
19555;DHT22;9924;50.828;6.440;2023-07-24T10:56:28;23.20;99.90
19555;DHT22;9924;50.828;6.440;2023-07-24T10:58:54;23.40;99.90
19555;DHT22;9924;50.828;6.440;2023-07-24T11:01:20;23.70;99.90
19555;DHT22;9924;50.828;6.440;2023-07-24T11:04:04;23.80;99.90
19555;DHT22;9924;50.828;6.440;2023-07-24T11:06:31;23.60;99.90
19555;DHT22;9924;50.828;6.440;2023-07-24T11:09:05;22.90;99.90
19555;DHT22;9924;50.828;6.440;2023-07-24T11:11:35;21.80;99.90
19555;DHT22;9924;50.828;6.440;2023-07-24T11:14:04;20.50;99.90
19555;DHT22;9924;50.828;6.440;2023-07-24T11:16:30;20.20;99.90
19555;DHT22;9924;50.828;6.440;2023-07-24T11:18:57;20.60;99.90
19555;DHT22;9924;50.828;6.440;2023-07-24T11:21:23;20.90;99.90
19555;DHT22;9924;50.828;6.440;2023-07-24T11:23:52;21.50;99.90
19555;DHT22;9924;50.828;6.440;2023-07-24T11:26:19;22.20;99.90
19555;DHT22;9924;50.828;6.440;2023-07-24T11:28:46;22.80;99.90
19555;DHT22;9924;50.828;6.440;2023-07-24T11:31:12;22.90;99.90
19555;DHT22;9924;50.828;6.440;2023-07-24T11:33:38;23.20;99.90
19555;DHT22;9924;50.828;6.440;2023-07-24T11:36:05;23.30;99.90
19555;DHT22;9924;50.828;6.440;2023-07-24T11:38:31;23.10;99.90
19555;DHT22;9924;50.828;6.440;2023-07-24T11:40:57;22.70;99.90
19555;DHT22;9924;50.828;6.440;2023-07-24T11:43:24;22.20;99.90
19555;DHT22;9924;50.828;6.440;2023-07-24T11:45:52;21.80;99.90
19555;DHT22;9924;50.828;6.440;2023-07-24T11:48:23;21.10;99.90
19555;DHT22;9924;50.828;6.440;2023-07-24T11:50:54;21.00;99.90
19555;DHT22;9924;50.828;6.440;2023-07-24T11:53:28;20.90;99.90
19555;DHT22;9924;50.828;6.440;2023-07-24T11:55:56;20.60;99.90
19555;DHT22;9924;50.828;6.440;2023-07-24T11:58:25;20.40;99.90
19555;DHT22;9924;50.828;6.440;2023-07-24T12:00:51;20.20;99.90
19555;DHT22;9924;50.828;6.440;2023-07-24T12:03:24;20.40;99.90
19555;DHT22;9924;50.828;6.440;2023-07-24T12:05:52;21.20;99.90
19555;DHT22;9924;50.828;6.440;2023-07-24T12:08:21;22.10;99.90
19555;DHT22;9924;50.828;6.440;2023-07-24T12:10:49;23.00;99.90
19555;DHT22;9924;50.828;6.440;2023-07-24T12:13:15;23.60;99.90
19555;DHT22;9924;50.828;6.440;2023-07-24T12:15:41;24.10;99.90
19555;DHT22;9924;50.828;6.440;2023-07-24T12:18:07;23.80;99.90
19555;DHT22;9924;50.828;6.440;2023-07-24T12:20:34;23.70;99.90
19555;DHT22;9924;50.828;6.440;2023-07-24T12:23:00;23.40;99.90
19555;DHT22;9924;50.828;6.440;2023-07-24T12:25:26;23.30;99.90
19555;DHT22;9924;50.828;6.440;2023-07-24T12:27:53;22.80;99.90
19555;DHT22;9924;50.828;6.440;2023-07-24T12:30:19;22.10;99.90
19555;DHT22;9924;50.828;6.440;2023-07-24T12:32:45;22.10;99.90
19555;DHT22;9924;50.828;6.440;2023-07-24T12:35:11;22.60;99.90
19555;DHT22;9924;50.828;6.440;2023-07-24T12:37:37;23.00;99.90
19555;DHT22;9924;50.828;6.440;2023-07-24T12:40:05;22.90;99.90
19555;DHT22;9924;50.828;6.440;2023-07-24T12:42:31;23.40;99.90
19555;DHT22;9924;50.828;6.440;2023-07-24T12:44:57;23.90;99.90
19555;DHT22;9924;50.828;6.440;2023-07-24T12:47:23;24.50;99.90
19555;DHT22;9924;50.828;6.440;2023-07-24T12:49:49;25.10;99.90
19555;DHT22;9924;50.828;6.440;2023-07-24T12:52:16;25.20;99.90
19555;DHT22;9924;50.828;6.440;2023-07-24T12:54:43;25.70;99.90
19555;DHT22;9924;50.828;6.440;2023-07-24T12:57:09;25.80;99.90
19555;DHT22;9924;50.828;6.440;2023-07-24T12:59:35;25.70;99.90
19555;DHT22;9924;50.828;6.440;2023-07-24T13:02:01;25.50;99.90
19555;DHT22;9924;50.828;6.440;2023-07-24T13:04:27;25.30;99.90
19555;DHT22;9924;50.828;6.440;2023-07-24T13:06:53;24.80;99.90
19555;DHT22;9924;50.828;6.440;2023-07-24T13:09:19;24.10;99.90
19555;DHT22;9924;50.828;6.440;2023-07-24T13:11:45;23.50;99.90
19555;DHT22;9924;50.828;6.440;2023-07-24T13:14:14;22.90;99.90
19555;DHT22;9924;50.828;6.440;2023-07-24T13:16:41;22.50;99.90
19555;DHT22;9924;50.828;6.440;2023-07-24T13:19:07;22.00;99.90
19555;DHT22;9924;50.828;6.440;2023-07-24T13:21:34;21.70;99.90
19555;DHT22;9924;50.828;6.440;2023-07-24T13:24:05;21.30;99.90
19555;DHT22;9924;50.828;6.440;2023-07-24T13:26:31;21.10;99.90
19555;DHT22;9924;50.828;6.440;2023-07-24T13:28:57;20.90;99.90
19555;DHT22;9924;50.828;6.440;2023-07-24T13:31:23;20.70;99.90
19555;DHT22;9924;50.828;6.440;2023-07-24T13:33:49;20.50;99.90
19555;DHT22;9924;50.828;6.440;2023-07-24T13:36:15;20.50;99.90
19555;DHT22;9924;50.828;6.440;2023-07-24T13:38:41;20.30;99.90
19555;DHT22;9924;50.828;6.440;2023-07-24T13:41:07;20.10;99.90
19555;DHT22;9924;50.828;6.440;2023-07-24T13:43:37;19.80;99.90
19555;DHT22;9924;50.828;6.440;2023-07-24T13:46:03;19.70;99.90
19555;DHT22;9924;50.828;6.440;2023-07-24T13:48:30;19.80;99.90
19555;DHT22;9924;50.828;6.440;2023-07-24T13:50:56;19.80;99.90
19555;DHT22;9924;50.828;6.440;2023-07-24T13:53:22;20.10;99.90
19555;DHT22;9924;50.828;6.440;2023-07-24T13:55:48;20.20;99.90
19555;DHT22;9924;50.828;6.440;2023-07-24T13:58:14;20.20;99.90
19555;DHT22;9924;50.828;6.440;2023-07-24T14:00:40;20.20;99.90
19555;DHT22;9924;50.828;6.440;2023-07-24T14:03:06;20.20;99.90
19555;DHT22;9924;50.828;6.440;2023-07-24T14:05:33;20.20;99.90
19555;DHT22;9924;50.828;6.440;2023-07-24T14:08:02;20.30;99.90
19555;DHT22;9924;50.828;6.440;2023-07-24T14:10:28;20.40;99.90
19555;DHT22;9924;50.828;6.440;2023-07-24T14:12:54;20.50;99.90
19555;DHT22;9924;50.828;6.440;2023-07-24T14:15:20;20.80;99.90
19555;DHT22;9924;50.828;6.440;2023-07-24T14:17:46;21.40;99.90
19555;DHT22;9924;50.828;6.440;2023-07-24T14:20:12;21.70;99.90
19555;DHT22;9924;50.828;6.440;2023-07-24T14:22:39;21.80;99.90
19555;DHT22;9924;50.828;6.440;2023-07-24T14:25:05;22.10;99.90
19555;DHT22;9924;50.828;6.440;2023-07-24T14:27:34;22.20;99.90
19555;DHT22;9924;50.828;6.440;2023-07-24T14:30:00;22.30;99.90
19555;DHT22;9924;50.828;6.440;2023-07-24T14:32:27;22.90;99.90
19555;DHT22;9924;50.828;6.440;2023-07-24T14:34:53;23.30;99.90
19555;DHT22;9924;50.828;6.440;2023-07-24T14:37:20;23.50;99.90
19555;DHT22;9924;50.828;6.440;2023-07-24T14:39:46;23.50;99.90
19555;DHT22;9924;50.828;6.440;2023-07-24T14:42:12;23.80;99.90
19555;DHT22;9924;50.828;6.440;2023-07-24T14:44:42;24.10;99.90
19555;DHT22;9924;50.828;6.440;2023-07-24T14:47:08;24.20;99.90
19555;DHT22;9924;50.828;6.440;2023-07-24T14:49:35;23.80;99.90
19555;DHT22;9924;50.828;6.440;2023-07-24T14:52:00;23.60;99.90
19555;DHT22;9924;50.828;6.440;2023-07-24T14:54:27;23.70;99.90
19555;DHT22;9924;50.828;6.440;2023-07-24T14:56:53;23.90;99.90
19555;DHT22;9924;50.828;6.440;2023-07-24T14:59:19;24.30;99.90
19555;DHT22;9924;50.828;6.440;2023-07-24T15:01:45;24.10;99.90
19555;DHT22;9924;50.828;6.440;2023-07-24T15:04:10;23.90;99.90
19555;DHT22;9924;50.828;6.440;2023-07-24T15:06:36;23.80;99.90
19555;DHT22;9924;50.828;6.440;2023-07-24T15:09:02;23.30;99.90
19555;DHT22;9924;50.828;6.440;2023-07-24T15:11:28;23.00;99.90
19555;DHT22;9924;50.828;6.440;2023-07-24T15:13:54;23.40;99.90
19555;DHT22;9924;50.828;6.440;2023-07-24T15:16:21;23.40;99.90
19555;DHT22;9924;50.828;6.440;2023-07-24T15:18:47;22.90;99.90
19555;DHT22;9924;50.828;6.440;2023-07-24T15:21:14;22.90;99.90
19555;DHT22;9924;50.828;6.440;2023-07-24T15:23:40;23.50;99.90
19555;DHT22;9924;50.828;6.440;2023-07-24T15:26:05;24.20;99.90
19555;DHT22;9924;50.828;6.440;2023-07-24T15:28:31;24.60;99.90
19555;DHT22;9924;50.828;6.440;2023-07-24T15:30:57;24.90;99.90
19555;DHT22;9924;50.828;6.440;2023-07-24T15:33:23;24.70;99.90
19555;DHT22;9924;50.828;6.440;2023-07-24T15:35:50;24.20;99.90
19555;DHT22;9924;50.828;6.440;2023-07-24T15:38:16;24.10;99.90
19555;DHT22;9924;50.828;6.440;2023-07-24T15:40:42;24.10;99.90
19555;DHT22;9924;50.828;6.440;2023-07-24T15:43:08;24.40;99.90
19555;DHT22;9924;50.828;6.440;2023-07-24T15:45:35;24.10;99.90
19555;DHT22;9924;50.828;6.440;2023-07-24T15:48:01;23.50;99.90